sensor_id;sensor_type;location;lat;lon;timestamp;temperature;humidity
69189;DHT22;56302;52.322;5.926;2024-03-25T00:00:29;4.30;99.90
69189;DHT22;56302;52.322;5.926;2024-03-25T00:02:55;4.30;99.90
69189;DHT22;56302;52.322;5.926;2024-03-25T00:05:20;4.20;99.90
69189;DHT22;56302;52.322;5.926;2024-03-25T00:07:51;4.20;99.90
69189;DHT22;56302;52.322;5.926;2024-03-25T00:10:17;4.20;99.90
69189;DHT22;56302;52.322;5.926;2024-03-25T00:12:43;4.20;99.90
69189;DHT22;56302;52.322;5.926;2024-03-25T00:15:09;4.20;99.90
69189;DHT22;56302;52.322;5.926;2024-03-25T00:17:35;4.20;99.90
69189;DHT22;56302;52.322;5.926;2024-03-25T00:20:01;4.20;99.90
69189;DHT22;56302;52.322;5.926;2024-03-25T00:22:27;4.10;99.90
69189;DHT22;56302;52.322;5.926;2024-03-25T00:24:52;4.10;99.90
69189;DHT22;56302;52.322;5.926;2024-03-25T00:27:18;4.00;99.90
69189;DHT22;56302;52.322;5.926;2024-03-25T00:29:44;4.00;99.90
69189;DHT22;56302;52.322;5.926;2024-03-25T00:32:10;3.90;99.90
69189;DHT22;56302;52.322;5.926;2024-03-25T00:34:36;3.90;99.90
69189;DHT22;56302;52.322;5.926;2024-03-25T00:37:02;3.90;99.90
69189;DHT22;56302;52.322;5.926;2024-03-25T00:39:29;3.80;99.90
69189;DHT22;56302;52.322;5.926;2024-03-25T00:41:58;3.80;99.90
69189;DHT22;56302;52.322;5.926;2024-03-25T00:44:23;3.80;99.90
69189;DHT22;56302;52.322;5.926;2024-03-25T00:46:49;3.70;99.90
69189;DHT22;56302;52.322;5.926;2024-03-25T00:49:15;3.70;99.90
69189;DHT22;56302;52.322;5.926;2024-03-25T00:51:41;3.70;99.90
69189;DHT22;56302;52.322;5.926;2024-03-25T00:54:06;3.70;99.90
69189;DHT22;56302;52.322;5.926;2024-03-25T00:56:32;3.60;99.90
69189;DHT22;56302;52.322;5.926;2024-03-25T00:58:58;3.60;99.90
69189;DHT22;56302;52.322;5.926;2024-03-25T01:01:31;3.60;99.90
69189;DHT22;56302;52.322;5.926;2024-03-25T01:03:57;3.60;99.90
69189;DHT22;56302;52.322;5.926;2024-03-25T01:06:23;3.50;99.70
69189;DHT22;56302;52.322;5.926;2024-03-25T01:08:49;3.50;99.60
69189;DHT22;56302;52.322;5.926;2024-03-25T01:11:15;3.50;99.40
69189;DHT22;56302;52.322;5.926;2024-03-25T01:13:41;3.40;99.30
69189;DHT22;56302;52.322;5.926;2024-03-25T01:16:07;3.40;99.30
69189;DHT22;56302;52.322;5.926;2024-03-25T01:18:33;3.30;99.20
69189;DHT22;56302;52.322;5.926;2024-03-25T01:20:59;3.30;99.10
69189;DHT22;56302;52.322;5.926;2024-03-25T01:23:24;3.20;99.10
69189;DHT22;56302;52.322;5.926;2024-03-25T01:25:50;3.20;99.20
69189;DHT22;56302;52.322;5.926;2024-03-25T01:28:16;3.20;99.30
69189;DHT22;56302;52.322;5.926;2024-03-25T01:30:41;3.20;99.30
69189;DHT22;56302;52.322;5.926;2024-03-25T01:33:07;3.10;99.20
69189;DHT22;56302;52.322;5.926;2024-03-25T01:35:33;3.20;99.30
69189;DHT22;56302;52.322;5.926;2024-03-25T01:37:59;3.20;99.30
69189;DHT22;56302;52.322;5.926;2024-03-25T01:40:24;3.20;99.40
69189;DHT22;56302;52.322;5.926;2024-03-25T01:43:01;3.20;99.50
69189;DHT22;56302;52.322;5.926;2024-03-25T01:45:34;3.20;99.50
69189;DHT22;56302;52.322;5.926;2024-03-25T01:48:07;3.30;99.60
69189;DHT22;56302;52.322;5.926;2024-03-25T01:50:37;3.30;99.80
69189;DHT22;56302;52.322;5.926;2024-03-25T01:53:04;3.40;99.90
69189;DHT22;56302;52.322;5.926;2024-03-25T01:55:32;3.40;99.90
69189;DHT22;56302;52.322;5.926;2024-03-25T01:58:00;3.40;99.90
69189;DHT22;56302;52.322;5.926;2024-03-25T02:00:26;3.40;99.90
69189;DHT22;56302;52.322;5.926;2024-03-25T02:02:53;3.50;99.90
69189;DHT22;56302;52.322;5.926;2024-03-25T02:05:19;3.50;99.90
69189;DHT22;56302;52.322;5.926;2024-03-25T02:07:45;3.50;99.90
69189;DHT22;56302;52.322;5.926;2024-03-25T02:10:11;3.50;99.90
69189;DHT22;56302;52.322;5.926;2024-03-25T02:12:44;3.50;99.90
69189;DHT22;56302;52.322;5.926;2024-03-25T02:15:12;3.50;99.90
69189;DHT22;56302;52.322;5.926;2024-03-25T02:17:38;3.60;99.90
69189;DHT22;56302;52.322;5.926;2024-03-25T02:20:06;3.60;99.90
69189;DHT22;56302;52.322;5.926;2024-03-25T02:22:33;3.60;99.90
69189;DHT22;56302;52.322;5.926;2024-03-25T02:25:00;3.60;99.90
69189;DHT22;56302;52.322;5.926;2024-03-25T02:27:27;3.60;99.90
69189;DHT22;56302;52.322;5.926;2024-03-25T02:30:08;3.60;99.90
69189;DHT22;56302;52.322;5.926;2024-03-25T02:32:35;3.60;99.90
69189;DHT22;56302;52.322;5.926;2024-03-25T02:35:03;3.60;99.90
69189;DHT22;56302;52.322;5.926;2024-03-25T02:37:29;3.60;99.90
69189;DHT22;56302;52.322;5.926;2024-03-25T02:39:58;3.60;99.90
69189;DHT22;56302;52.322;5.926;2024-03-25T02:42:24;3.50;99.90
69189;DHT22;56302;52.322;5.926;2024-03-25T02:44:53;3.50;99.90
69189;DHT22;56302;52.322;5.926;2024-03-25T02:47:18;3.50;99.90
69189;DHT22;56302;52.322;5.926;2024-03-25T02:49:45;3.40;99.90
69189;DHT22;56302;52.322;5.926;2024-03-25T02:52:11;3.40;99.90
69189;DHT22;56302;52.322;5.926;2024-03-25T02:54:36;3.30;99.90
69189;DHT22;56302;52.322;5.926;2024-03-25T02:57:02;3.30;99.90
69189;DHT22;56302;52.322;5.926;2024-03-25T02:59:28;3.30;99.90
69189;DHT22;56302;52.322;5.926;2024-03-25T03:01:53;3.20;99.90
69189;DHT22;56302;52.322;5.926;2024-03-25T03:04:19;3.20;99.90
69189;DHT22;56302;52.322;5.926;2024-03-25T03:06:44;3.20;99.90
69189;DHT22;56302;52.322;5.926;2024-03-25T03:09:10;3.10;99.90
69189;DHT22;56302;52.322;5.926;2024-03-25T03:11:36;3.10;99.80
69189;DHT22;56302;52.322;5.926;2024-03-25T03:14:01;3.10;99.90
69189;DHT22;56302;52.322;5.926;2024-03-25T03:16:27;3.10;99.80
69189;DHT22;56302;52.322;5.926;2024-03-25T03:18:52;3.00;99.80
69189;DHT22;56302;52.322;5.926;2024-03-25T03:21:18;3.00;99.80
69189;DHT22;56302;52.322;5.926;2024-03-25T03:23:43;3.00;99.90
69189;DHT22;56302;52.322;5.926;2024-03-25T03:26:09;3.00;99.90
69189;DHT22;56302;52.322;5.926;2024-03-25T03:28:34;3.00;99.90
69189;DHT22;56302;52.322;5.926;2024-03-25T03:31:00;3.00;99.90
69189;DHT22;56302;52.322;5.926;2024-03-25T03:33:26;3.10;99.90
69189;DHT22;56302;52.322;5.926;2024-03-25T03:35:52;3.10;99.90
69189;DHT22;56302;52.322;5.926;2024-03-25T03:38:17;3.10;99.90
69189;DHT22;56302;52.322;5.926;2024-03-25T03:40:55;3.20;99.90
69189;DHT22;56302;52.322;5.926;2024-03-25T03:43:21;3.20;99.90
69189;DHT22;56302;52.322;5.926;2024-03-25T03:45:46;3.20;99.90
69189;DHT22;56302;52.322;5.926;2024-03-25T03:48:12;3.30;99.90
69189;DHT22;56302;52.322;5.926;2024-03-25T03:50:37;3.30;99.90
69189;DHT22;56302;52.322;5.926;2024-03-25T03:53:03;3.30;99.90
69189;DHT22;56302;52.322;5.926;2024-03-25T03:55:29;3.30;99.90
69189;DHT22;56302;52.322;5.926;2024-03-25T03:57:55;3.30;99.90
69189;DHT22;56302;52.322;5.926;2024-03-25T04:00:20;3.20;99.90
69189;DHT22;56302;52.322;5.926;2024-03-25T04:02:46;3.20;99.90
69189;DHT22;56302;52.322;5.926;2024-03-25T04:05:11;3.20;99.90
69189;DHT22;56302;52.322;5.926;2024-03-25T04:07:37;3.20;99.90
69189;DHT22;56302;52.322;5.926;2024-03-25T04:10:04;3.20;99.90
69189;DHT22;56302;52.322;5.926;2024-03-25T04:12:30;3.30;99.90
69189;DHT22;56302;52.322;5.926;2024-03-25T04:14:55;3.30;99.90
69189;DHT22;56302;52.322;5.926;2024-03-25T04:17:22;3.20;99.90
69189;DHT22;56302;52.322;5.926;2024-03-25T04:19:49;3.30;99.90
69189;DHT22;56302;52.322;5.926;2024-03-25T04:22:14;3.30;99.90
69189;DHT22;56302;52.322;5.926;2024-03-25T04:24:40;3.30;99.90
69189;DHT22;56302;52.322;5.926;2024-03-25T04:27:06;3.30;99.90
69189;DHT22;56302;52.322;5.926;2024-03-25T04:29:31;3.30;99.90
69189;DHT22;56302;52.322;5.926;2024-03-25T04:31:57;3.30;99.90
69189;DHT22;56302;52.322;5.926;2024-03-25T04:34:22;3.30;99.90
69189;DHT22;56302;52.322;5.926;2024-03-25T04:36:49;3.20;99.90
69189;DHT22;56302;52.322;5.926;2024-03-25T04:39:14;3.20;99.90
69189;DHT22;56302;52.322;5.926;2024-03-25T04:41:40;3.20;99.90
69189;DHT22;56302;52.322;5.926;2024-03-25T04:44:06;3.20;99.90
69189;DHT22;56302;52.322;5.926;2024-03-25T04:46:31;3.10;99.90
69189;DHT22;56302;52.322;5.926;2024-03-25T04:48:57;3.00;99.90
69189;DHT22;56302;52.322;5.926;2024-03-25T04:51:23;3.00;99.90
69189;DHT22;56302;52.322;5.926;2024-03-25T04:53:49;2.90;99.90
69189;DHT22;56302;52.322;5.926;2024-03-25T04:56:14;2.90;99.90
69189;DHT22;56302;52.322;5.926;2024-03-25T04:58:40;2.80;99.90
69189;DHT22;56302;52.322;5.926;2024-03-25T05:01:05;2.80;99.90
69189;DHT22;56302;52.322;5.926;2024-03-25T05:03:31;2.80;99.80
69189;DHT22;56302;52.322;5.926;2024-03-25T05:05:56;2.70;99.80
69189;DHT22;56302;52.322;5.926;2024-03-25T05:08:22;2.70;99.70
69189;DHT22;56302;52.322;5.926;2024-03-25T05:10:48;2.60;99.50
69189;DHT22;56302;52.322;5.926;2024-03-25T05:13:13;2.60;99.40
69189;DHT22;56302;52.322;5.926;2024-03-25T05:15:39;2.50;99.20
69189;DHT22;56302;52.322;5.926;2024-03-25T05:18:04;2.50;99.10
69189;DHT22;56302;52.322;5.926;2024-03-25T05:20:30;2.40;99.20
69189;DHT22;56302;52.322;5.926;2024-03-25T05:22:56;2.30;99.10
69189;DHT22;56302;52.322;5.926;2024-03-25T05:25:21;2.30;99.10
69189;DHT22;56302;52.322;5.926;2024-03-25T05:27:54;2.20;99.10
69189;DHT22;56302;52.322;5.926;2024-03-25T05:30:19;2.20;99.30
69189;DHT22;56302;52.322;5.926;2024-03-25T05:32:45;2.10;99.20
69189;DHT22;56302;52.322;5.926;2024-03-25T05:35:10;2.00;99.20
69189;DHT22;56302;52.322;5.926;2024-03-25T05:37:36;1.80;99.30
69189;DHT22;56302;52.322;5.926;2024-03-25T05:40:02;1.70;99.50
69189;DHT22;56302;52.322;5.926;2024-03-25T05:42:28;1.80;99.80
69189;DHT22;56302;52.322;5.926;2024-03-25T05:44:54;1.80;99.90
69189;DHT22;56302;52.322;5.926;2024-03-25T05:47:19;1.90;99.90
69189;DHT22;56302;52.322;5.926;2024-03-25T05:49:46;1.90;99.80
69189;DHT22;56302;52.322;5.926;2024-03-25T05:52:12;1.90;99.70
69189;DHT22;56302;52.322;5.926;2024-03-25T05:54:38;1.80;99.60
69189;DHT22;56302;52.322;5.926;2024-03-25T05:57:04;1.90;99.60
69189;DHT22;56302;52.322;5.926;2024-03-25T05:59:29;1.90;99.50
69189;DHT22;56302;52.322;5.926;2024-03-25T06:01:55;1.80;99.40
69189;DHT22;56302;52.322;5.926;2024-03-25T06:04:20;1.80;99.30
69189;DHT22;56302;52.322;5.926;2024-03-25T06:06:46;1.70;99.40
69189;DHT22;56302;52.322;5.926;2024-03-25T06:09:12;1.80;99.40
69189;DHT22;56302;52.322;5.926;2024-03-25T06:11:37;1.70;99.50
69189;DHT22;56302;52.322;5.926;2024-03-25T06:14:03;1.80;99.50
69189;DHT22;56302;52.322;5.926;2024-03-25T06:16:28;1.90;99.50
69189;DHT22;56302;52.322;5.926;2024-03-25T06:18:54;2.00;99.30
69189;DHT22;56302;52.322;5.926;2024-03-25T06:21:19;2.20;99.20
69189;DHT22;56302;52.322;5.926;2024-03-25T06:23:45;2.30;98.90
69189;DHT22;56302;52.322;5.926;2024-03-25T06:26:11;2.40;98.80
69189;DHT22;56302;52.322;5.926;2024-03-25T06:28:36;2.60;98.60
69189;DHT22;56302;52.322;5.926;2024-03-25T06:31:02;2.80;98.30
69189;DHT22;56302;52.322;5.926;2024-03-25T06:33:46;3.10;98.20
69189;DHT22;56302;52.322;5.926;2024-03-25T06:36:30;3.20;97.60
69189;DHT22;56302;52.322;5.926;2024-03-25T06:38:56;3.10;97.70
69189;DHT22;56302;52.322;5.926;2024-03-25T06:41:21;3.10;97.90
69189;DHT22;56302;52.322;5.926;2024-03-25T06:43:47;3.20;98.10
69189;DHT22;56302;52.322;5.926;2024-03-25T06:46:12;3.40;98.40
69189;DHT22;56302;52.322;5.926;2024-03-25T06:48:38;3.70;98.80
69189;DHT22;56302;52.322;5.926;2024-03-25T06:51:04;3.70;98.20
69189;DHT22;56302;52.322;5.926;2024-03-25T06:53:30;3.60;98.40
69189;DHT22;56302;52.322;5.926;2024-03-25T06:55:57;3.70;98.80
69189;DHT22;56302;52.322;5.926;2024-03-25T06:58:24;3.80;99.00
69189;DHT22;56302;52.322;5.926;2024-03-25T07:00:50;3.90;99.50
69189;DHT22;56302;52.322;5.926;2024-03-25T07:03:17;4.00;99.60
69189;DHT22;56302;52.322;5.926;2024-03-25T07:05:47;4.20;99.90
69189;DHT22;56302;52.322;5.926;2024-03-25T07:08:13;4.40;99.90
69189;DHT22;56302;52.322;5.926;2024-03-25T07:10:41;4.50;99.90
69189;DHT22;56302;52.322;5.926;2024-03-25T07:13:07;4.60;99.90
69189;DHT22;56302;52.322;5.926;2024-03-25T07:15:32;4.80;99.90
69189;DHT22;56302;52.322;5.926;2024-03-25T07:17:58;4.80;99.90
69189;DHT22;56302;52.322;5.926;2024-03-25T07:20:24;4.90;99.80
69189;DHT22;56302;52.322;5.926;2024-03-25T07:22:50;4.90;99.60
69189;DHT22;56302;52.322;5.926;2024-03-25T07:25:15;5.00;99.50
69189;DHT22;56302;52.322;5.926;2024-03-25T07:27:41;5.00;99.30
69189;DHT22;56302;52.322;5.926;2024-03-25T07:30:07;5.00;99.10
69189;DHT22;56302;52.322;5.926;2024-03-25T07:32:34;5.00;99.00
69189;DHT22;56302;52.322;5.926;2024-03-25T07:35:00;5.10;99.00
69189;DHT22;56302;52.322;5.926;2024-03-25T07:37:25;5.20;99.00
69189;DHT22;56302;52.322;5.926;2024-03-25T07:39:52;5.30;98.60
69189;DHT22;56302;52.322;5.926;2024-03-25T07:42:18;5.40;98.50
69189;DHT22;56302;52.322;5.926;2024-03-25T07:44:44;5.40;98.20
69189;DHT22;56302;52.322;5.926;2024-03-25T07:47:10;5.50;98.10
69189;DHT22;56302;52.322;5.926;2024-03-25T07:49:35;5.70;98.10
69189;DHT22;56302;52.322;5.926;2024-03-25T07:52:01;5.90;98.20
69189;DHT22;56302;52.322;5.926;2024-03-25T07:54:28;6.20;98.20
69189;DHT22;56302;52.322;5.926;2024-03-25T07:56:53;6.60;98.80
69189;DHT22;56302;52.322;5.926;2024-03-25T07:59:19;7.10;98.80
69189;DHT22;56302;52.322;5.926;2024-03-25T08:01:45;7.40;98.00
69189;DHT22;56302;52.322;5.926;2024-03-25T08:04:10;8.00;98.50
69189;DHT22;56302;52.322;5.926;2024-03-25T08:06:36;8.40;96.80
69189;DHT22;56302;52.322;5.926;2024-03-25T08:09:02;8.70;95.90
69189;DHT22;56302;52.322;5.926;2024-03-25T08:11:30;9.10;95.20
69189;DHT22;56302;52.322;5.926;2024-03-25T08:13:56;9.50;93.50
69189;DHT22;56302;52.322;5.926;2024-03-25T08:16:22;9.60;90.30
69189;DHT22;56302;52.322;5.926;2024-03-25T08:18:47;9.90;90.90
69189;DHT22;56302;52.322;5.926;2024-03-25T08:21:13;10.00;88.60
69189;DHT22;56302;52.322;5.926;2024-03-25T08:23:39;9.90;86.50
69189;DHT22;56302;52.322;5.926;2024-03-25T08:26:05;10.00;88.00
69189;DHT22;56302;52.322;5.926;2024-03-25T08:28:32;9.80;87.20
69189;DHT22;56302;52.322;5.926;2024-03-25T08:30:58;9.60;85.30
69189;DHT22;56302;52.322;5.926;2024-03-25T08:33:23;9.30;85.30
69189;DHT22;56302;52.322;5.926;2024-03-25T08:35:49;9.30;86.50
69189;DHT22;56302;52.322;5.926;2024-03-25T08:38:14;9.60;86.90
69189;DHT22;56302;52.322;5.926;2024-03-25T08:40:40;9.70;85.30
69189;DHT22;56302;52.322;5.926;2024-03-25T08:43:06;9.60;84.40
69189;DHT22;56302;52.322;5.926;2024-03-25T08:45:32;9.70;85.30
69189;DHT22;56302;52.322;5.926;2024-03-25T08:47:57;10.00;84.60
69189;DHT22;56302;52.322;5.926;2024-03-25T08:50:23;10.30;83.00
69189;DHT22;56302;52.322;5.926;2024-03-25T08:52:49;10.50;82.60
69189;DHT22;56302;52.322;5.926;2024-03-25T08:55:15;10.70;79.20
69189;DHT22;56302;52.322;5.926;2024-03-25T08:57:40;10.50;79.10
69189;DHT22;56302;52.322;5.926;2024-03-25T09:00:06;10.70;77.80
69189;DHT22;56302;52.322;5.926;2024-03-25T09:02:38;11.10;83.30
69189;DHT22;56302;52.322;5.926;2024-03-25T09:05:04;11.60;81.40
69189;DHT22;56302;52.322;5.926;2024-03-25T09:07:33;11.80;80.30
69189;DHT22;56302;52.322;5.926;2024-03-25T09:09:59;11.50;75.20
69189;DHT22;56302;52.322;5.926;2024-03-25T09:12:43;11.00;72.80
69189;DHT22;56302;52.322;5.926;2024-03-25T09:15:09;11.60;74.20
69189;DHT22;56302;52.322;5.926;2024-03-25T09:17:35;11.70;74.10
69189;DHT22;56302;52.322;5.926;2024-03-25T09:20:02;12.10;75.80
69189;DHT22;56302;52.322;5.926;2024-03-25T09:22:42;12.50;72.60
69189;DHT22;56302;52.322;5.926;2024-03-25T09:25:07;12.80;66.50
69189;DHT22;56302;52.322;5.926;2024-03-25T09:27:33;12.80;70.40
69189;DHT22;56302;52.322;5.926;2024-03-25T09:29:59;13.00;63.90
69189;DHT22;56302;52.322;5.926;2024-03-25T09:32:24;12.90;68.10
69189;DHT22;56302;52.322;5.926;2024-03-25T09:34:51;12.50;66.90
69189;DHT22;56302;52.322;5.926;2024-03-25T09:37:17;12.70;69.60
69189;DHT22;56302;52.322;5.926;2024-03-25T09:39:43;12.50;60.80
69189;DHT22;56302;52.322;5.926;2024-03-25T09:42:14;12.50;69.90
69189;DHT22;56302;52.322;5.926;2024-03-25T09:44:40;13.00;69.30
69189;DHT22;56302;52.322;5.926;2024-03-25T09:47:06;13.20;64.40
69189;DHT22;56302;52.322;5.926;2024-03-25T09:49:32;13.10;65.00
69189;DHT22;56302;52.322;5.926;2024-03-25T09:51:59;13.00;65.10
69189;DHT22;56302;52.322;5.926;2024-03-25T09:54:25;13.10;66.20
69189;DHT22;56302;52.322;5.926;2024-03-25T09:56:50;13.20;64.10
69189;DHT22;56302;52.322;5.926;2024-03-25T09:59:17;13.20;65.20
69189;DHT22;56302;52.322;5.926;2024-03-25T10:01:43;13.10;66.50
69189;DHT22;56302;52.322;5.926;2024-03-25T10:04:09;13.00;66.00
69189;DHT22;56302;52.322;5.926;2024-03-25T10:06:35;13.00;68.00
69189;DHT22;56302;52.322;5.926;2024-03-25T10:09:04;13.10;66.00
69189;DHT22;56302;52.322;5.926;2024-03-25T10:11:32;13.30;62.60
69189;DHT22;56302;52.322;5.926;2024-03-25T10:14:01;13.10;64.80
69189;DHT22;56302;52.322;5.926;2024-03-25T10:16:27;13.10;62.00
69189;DHT22;56302;52.322;5.926;2024-03-25T10:18:52;12.90;61.60
69189;DHT22;56302;52.322;5.926;2024-03-25T10:21:22;13.00;64.60
69189;DHT22;56302;52.322;5.926;2024-03-25T10:23:48;12.70;63.60
69189;DHT22;56302;52.322;5.926;2024-03-25T10:26:27;12.60;66.20
69189;DHT22;56302;52.322;5.926;2024-03-25T10:29:03;12.30;65.60
69189;DHT22;56302;52.322;5.926;2024-03-25T10:31:30;12.20;66.40
69189;DHT22;56302;52.322;5.926;2024-03-25T10:33:56;12.20;61.00
69189;DHT22;56302;52.322;5.926;2024-03-25T10:36:22;11.80;67.40
69189;DHT22;56302;52.322;5.926;2024-03-25T10:38:53;12.10;65.10
69189;DHT22;56302;52.322;5.926;2024-03-25T10:41:20;11.40;60.50
69189;DHT22;56302;52.322;5.926;2024-03-25T10:43:47;11.30;66.70
69189;DHT22;56302;52.322;5.926;2024-03-25T10:46:20;11.50;68.10
69189;DHT22;56302;52.322;5.926;2024-03-25T10:49:13;11.40;67.90
69189;DHT22;56302;52.322;5.926;2024-03-25T10:51:41;11.50;63.20
69189;DHT22;56302;52.322;5.926;2024-03-25T10:54:07;11.00;64.00
69189;DHT22;56302;52.322;5.926;2024-03-25T10:56:33;10.80;62.60
69189;DHT22;56302;52.322;5.926;2024-03-25T10:59:00;10.90;66.50
69189;DHT22;56302;52.322;5.926;2024-03-25T11:01:27;11.10;62.50
69189;DHT22;56302;52.322;5.926;2024-03-25T11:03:52;11.40;68.10
69189;DHT22;56302;52.322;5.926;2024-03-25T11:06:18;11.50;65.10
69189;DHT22;56302;52.322;5.926;2024-03-25T11:08:44;11.60;66.10
69189;DHT22;56302;52.322;5.926;2024-03-25T11:11:13;11.60;66.60
69189;DHT22;56302;52.322;5.926;2024-03-25T11:13:38;11.50;63.60
69189;DHT22;56302;52.322;5.926;2024-03-25T11:16:06;11.40;64.50
69189;DHT22;56302;52.322;5.926;2024-03-25T11:18:32;11.50;68.20
69189;DHT22;56302;52.322;5.926;2024-03-25T11:23:36;11.30;67.00
69189;DHT22;56302;52.322;5.926;2024-03-25T11:26:01;11.50;67.30
69189;DHT22;56302;52.322;5.926;2024-03-25T11:28:30;11.60;64.30
69189;DHT22;56302;52.322;5.926;2024-03-25T11:30:56;11.70;64.20
69189;DHT22;56302;52.322;5.926;2024-03-25T11:33:22;11.70;60.20
69189;DHT22;56302;52.322;5.926;2024-03-25T11:35:49;11.60;59.20
69189;DHT22;56302;52.322;5.926;2024-03-25T11:38:15;11.60;60.00
69189;DHT22;56302;52.322;5.926;2024-03-25T11:40:45;11.90;58.80
69189;DHT22;56302;52.322;5.926;2024-03-25T11:43:18;11.70;58.90
69189;DHT22;56302;52.322;5.926;2024-03-25T11:45:47;11.60;56.80
69189;DHT22;56302;52.322;5.926;2024-03-25T11:48:17;11.80;60.50
69189;DHT22;56302;52.322;5.926;2024-03-25T11:50:46;11.90;59.10
69189;DHT22;56302;52.322;5.926;2024-03-25T11:53:15;11.90;60.00
69189;DHT22;56302;52.322;5.926;2024-03-25T11:55:41;12.10;60.70
69189;DHT22;56302;52.322;5.926;2024-03-25T11:58:11;12.20;60.00
69189;DHT22;56302;52.322;5.926;2024-03-25T12:00:46;12.20;60.50
69189;DHT22;56302;52.322;5.926;2024-03-25T12:03:15;12.30;59.20
69189;DHT22;56302;52.322;5.926;2024-03-25T12:05:41;12.20;62.20
69189;DHT22;56302;52.322;5.926;2024-03-25T12:08:08;12.10;58.90
69189;DHT22;56302;52.322;5.926;2024-03-25T12:10:36;12.20;61.60
69189;DHT22;56302;52.322;5.926;2024-03-25T12:13:21;12.20;58.60
69189;DHT22;56302;52.322;5.926;2024-03-25T12:15:47;12.10;58.30
69189;DHT22;56302;52.322;5.926;2024-03-25T12:18:14;12.20;59.00
69189;DHT22;56302;52.322;5.926;2024-03-25T12:20:40;12.30;57.40
69189;DHT22;56302;52.322;5.926;2024-03-25T12:23:06;12.40;57.70
69189;DHT22;56302;52.322;5.926;2024-03-25T12:25:31;12.60;54.50
69189;DHT22;56302;52.322;5.926;2024-03-25T12:27:57;12.60;56.10
69189;DHT22;56302;52.322;5.926;2024-03-25T12:30:23;12.60;57.80
69189;DHT22;56302;52.322;5.926;2024-03-25T12:32:50;12.80;58.20
69189;DHT22;56302;52.322;5.926;2024-03-25T12:35:16;13.30;57.20
69189;DHT22;56302;52.322;5.926;2024-03-25T12:37:44;13.50;53.40
69189;DHT22;56302;52.322;5.926;2024-03-25T12:40:12;13.50;55.90
69189;DHT22;56302;52.322;5.926;2024-03-25T12:42:38;13.80;56.00
69189;DHT22;56302;52.322;5.926;2024-03-25T12:45:07;14.10;53.90
69189;DHT22;56302;52.322;5.926;2024-03-25T12:47:33;13.60;54.80
69189;DHT22;56302;52.322;5.926;2024-03-25T12:49:59;13.30;54.50
69189;DHT22;56302;52.322;5.926;2024-03-25T12:52:25;13.20;55.50
69189;DHT22;56302;52.322;5.926;2024-03-25T12:54:51;13.10;54.50
69189;DHT22;56302;52.322;5.926;2024-03-25T12:57:16;13.10;56.50
69189;DHT22;56302;52.322;5.926;2024-03-25T12:59:43;13.00;55.80
69189;DHT22;56302;52.322;5.926;2024-03-25T13:02:10;13.00;56.40
69189;DHT22;56302;52.322;5.926;2024-03-25T13:04:37;12.90;56.90
69189;DHT22;56302;52.322;5.926;2024-03-25T13:07:04;13.00;57.30
69189;DHT22;56302;52.322;5.926;2024-03-25T13:09:29;12.60;55.40
69189;DHT22;56302;52.322;5.926;2024-03-25T13:11:56;12.30;57.10
69189;DHT22;56302;52.322;5.926;2024-03-25T13:14:22;12.60;58.00
69189;DHT22;56302;52.322;5.926;2024-03-25T13:16:48;12.40;57.80
69189;DHT22;56302;52.322;5.926;2024-03-25T13:19:13;12.40;56.30
69189;DHT22;56302;52.322;5.926;2024-03-25T13:21:39;12.30;58.80
69189;DHT22;56302;52.322;5.926;2024-03-25T13:24:05;12.10;57.80
69189;DHT22;56302;52.322;5.926;2024-03-25T13:26:31;11.90;57.60
69189;DHT22;56302;52.322;5.926;2024-03-25T13:28:57;11.70;61.40
69189;DHT22;56302;52.322;5.926;2024-03-25T13:31:24;11.60;60.00
69189;DHT22;56302;52.322;5.926;2024-03-25T13:33:49;11.40;61.30
69189;DHT22;56302;52.322;5.926;2024-03-25T13:36:15;11.40;62.40
69189;DHT22;56302;52.322;5.926;2024-03-25T13:38:40;11.30;62.00
69189;DHT22;56302;52.322;5.926;2024-03-25T13:41:06;11.30;62.20
69189;DHT22;56302;52.322;5.926;2024-03-25T13:43:32;11.20;60.60
69189;DHT22;56302;52.322;5.926;2024-03-25T13:45:58;11.20;60.70
69189;DHT22;56302;52.322;5.926;2024-03-25T13:48:23;11.30;59.50
69189;DHT22;56302;52.322;5.926;2024-03-25T13:50:49;11.30;60.90
69189;DHT22;56302;52.322;5.926;2024-03-25T13:53:15;11.50;59.50
69189;DHT22;56302;52.322;5.926;2024-03-25T13:55:40;11.50;58.40
69189;DHT22;56302;52.322;5.926;2024-03-25T13:58:07;11.20;59.50
69189;DHT22;56302;52.322;5.926;2024-03-25T14:00:33;11.00;59.30
69189;DHT22;56302;52.322;5.926;2024-03-25T14:03:01;11.00;61.30
69189;DHT22;56302;52.322;5.926;2024-03-25T14:05:27;11.10;58.60
69189;DHT22;56302;52.322;5.926;2024-03-25T14:07:53;11.20;59.10
69189;DHT22;56302;52.322;5.926;2024-03-25T14:10:18;11.10;62.10
69189;DHT22;56302;52.322;5.926;2024-03-25T14:12:44;11.40;59.10
69189;DHT22;56302;52.322;5.926;2024-03-25T14:15:10;11.40;57.70
69189;DHT22;56302;52.322;5.926;2024-03-25T14:17:36;11.40;57.40
69189;DHT22;56302;52.322;5.926;2024-03-25T14:20:01;11.20;57.30
69189;DHT22;56302;52.322;5.926;2024-03-25T14:22:29;10.90;58.30
69189;DHT22;56302;52.322;5.926;2024-03-25T14:25:06;10.90;61.70
69189;DHT22;56302;52.322;5.926;2024-03-25T14:27:32;11.00;60.00
69189;DHT22;56302;52.322;5.926;2024-03-25T14:29:57;11.00;60.30
69189;DHT22;56302;52.322;5.926;2024-03-25T14:32:23;11.00;60.90
69189;DHT22;56302;52.322;5.926;2024-03-25T14:34:50;10.90;59.50
69189;DHT22;56302;52.322;5.926;2024-03-25T14:37:15;11.00;60.80
69189;DHT22;56302;52.322;5.926;2024-03-25T14:39:41;11.20;59.60
69189;DHT22;56302;52.322;5.926;2024-03-25T14:42:10;11.30;58.50
69189;DHT22;56302;52.322;5.926;2024-03-25T14:44:36;11.20;57.50
69189;DHT22;56302;52.322;5.926;2024-03-25T14:47:02;11.10;58.40
69189;DHT22;56302;52.322;5.926;2024-03-25T14:49:28;11.10;59.90
69189;DHT22;56302;52.322;5.926;2024-03-25T14:51:53;10.90;60.70
69189;DHT22;56302;52.322;5.926;2024-03-25T14:54:19;10.90;59.70
69189;DHT22;56302;52.322;5.926;2024-03-25T14:56:48;10.70;62.20
69189;DHT22;56302;52.322;5.926;2024-03-25T14:59:14;10.60;62.10
69189;DHT22;56302;52.322;5.926;2024-03-25T15:01:40;10.60;62.30
69189;DHT22;56302;52.322;5.926;2024-03-25T15:04:05;10.60;61.90
69189;DHT22;56302;52.322;5.926;2024-03-25T15:06:31;10.70;61.50
69189;DHT22;56302;52.322;5.926;2024-03-25T15:08:58;10.70;60.60
69189;DHT22;56302;52.322;5.926;2024-03-25T15:11:23;10.70;60.00
69189;DHT22;56302;52.322;5.926;2024-03-25T15:13:51;10.70;60.80
69189;DHT22;56302;52.322;5.926;2024-03-25T15:16:17;10.60;59.60
69189;DHT22;56302;52.322;5.926;2024-03-25T15:18:43;10.50;59.50
69189;DHT22;56302;52.322;5.926;2024-03-25T15:21:08;10.50;60.20
69189;DHT22;56302;52.322;5.926;2024-03-25T15:23:34;10.70;59.60
69189;DHT22;56302;52.322;5.926;2024-03-25T15:25:59;10.80;59.10
69189;DHT22;56302;52.322;5.926;2024-03-25T15:28:25;10.90;58.10
69189;DHT22;56302;52.322;5.926;2024-03-25T15:30:54;11.00;59.70
69189;DHT22;56302;52.322;5.926;2024-03-25T15:33:20;10.90;58.70
69189;DHT22;56302;52.322;5.926;2024-03-25T15:35:45;10.80;58.50
69189;DHT22;56302;52.322;5.926;2024-03-25T15:38:11;10.80;59.10